Terminal Aerodrome Forecast
Issued by NWS

Home | Current Version | Previous Version | Text Only | Print | Product List | Glossary On
Versions: 1 2 3 4 5 6 7 8 9 10 11 12 13 14 15 16 17 18
239
FTUS46 KPDT 032320
TAFDLS
TAF
KDLS 032320Z 0400/0424 30014KT P6SM VCSH BKN050
      TEMPO 0400/0404 -RA BKN030 OVC050
     FM040400 30014KT P6SM -RA BKN030 BKN050
     FM041800 30012KT P6SM VCSH BKN040 BKN070=

USA.gov is the U.S. government's official web portal to all federal, state and local government web resources and services.